Date,TemperatureHighF,TemperatureAvgF,TemperatureLowF,DewpointHighF,DewpointAvgF,DewpointLowF,HumidityHigh,HumidityAvg,HumidityLow,PressureMaxIn,PressureMinIn,WindSpeedMaxMPH,WindSpeedAvgMPH,GustSpeedMaxMPH,PrecipitationSumIn
2013-3-1,57,53,49,52,50,48,95,91,83,30.43,30.30,5,2,11,0.01
2013-3-2,54,47,40,50,45,38,98,93,84,30.31,30.14,13,2,15,0.08
2013-3-3,49,41,35,39,37,34,96,84,64,30.30,30.25,8,2,12,0.00
2013-3-4,57,42,30,36,29,24,98,66,29,30.26,29.90,12,1,16,0.00
2013-3-5,45,41,39,41,36,26,96,82,53,29.90,29.66,9,2,11,0.24
2013-3-6,43,41,39,42,40,38,98,96,93,29.94,29.54,8,1,10,0.50
2013-3-7,55,45,38,42,38,34,95,79,47,30.06,29.95,6,2,11,0.00
2013-3-8,56,43,32,43,37,32,98,83,52,30.20,30.03,9,2,12,0.00
2013-3-9,57,44,34,42,37,33,97,78,47,30.48,30.21,6,1,7,0.01
2013-3-10,46,42,37,44,40,35,97,92,82,30.49,30.42,2,0,7,0.04
2013-3-11,51,47,43,49,45,42,98,94,85,30.43,30.23,6,1,7,0.00
2013-3-12,58,52,48,50,48,46,97,85,69,30.22,30.14,6,1,12,0.00
2013-3-13,61,53,48,51,47,45,91,82,66,30.21,30.08,5,1,9,0.00
2013-3-14,56,51,47,50,47,44,95,85,68,30.19,30.03,6,1,12,0.00
2013-3-15,61,52,47,53,48,45,94,87,67,30.22,30.16,5,1,10,0.33
2013-3-16,50,44,38,46,42,36,97,92,80,30.16,29.99,7,2,24,0.19
2013-3-17,45,39,35,40,36,34,96,90,78,30.29,30.10,7,1,18,0.17
2013-3-18,50,42,38,42,38,35,93,85,69,30.27,30.18,4,1,9,0.04
2013-3-19,50,41,35,42,37,33,98,88,70,30.17,29.66,8,2,14,0.59
2013-3-20,51,45,37,50,43,35,99,91,77,30.13,29.50,13,4,23,0.63
2013-3-21,37,37,37,35,35,35,94,93,92,30.15,30.13,3,1,3,0.00
2013-3-22,45,39,34,39,35,32,98,86,69,30.39,30.32,9,2,15,0.03
2013-3-23,49,39,32,38,33,29,97,81,50,30.39,30.28,6,1,10,0.01
2013-3-24,56,44,34,37,33,31,94,70,40,30.28,30.09,6,1,11,0.00
2013-3-25,63,50,41,43,36,31,79,60,39,30.09,29.90,7,1,13,0.00
2013-3-26,48,48,47,44,44,44,90,89,88,29.97,29.96,1,0,1,0.00
2013-3-27,64,52,44,49,45,42,96,80,49,29.98,29.89,6,1,9,0.04
2013-3-28,63,54,48,51,47,40,98,80,44,30.11,29.98,7,1,10,0.01
2013-3-29,68,56,47,51,48,45,95,74,49,30.20,30.12,8,2,13,0.00
2013-3-30,74,58,44,52,48,42,95,72,46,30.18,29.97,6,2,11,0.00
2013-3-31,74,59,47,51,47,43,89,67,36,29.99,29.88,8,1,14,0.00